T25 EFTP-EFTP
Flight info
| Callsign | T25 |
|---|---|
| Flight time | 1h 1m |
| Altitude | 2000 |
| Route | VIILA PAROLA NISVI/N0230F070 IFR |
| Aircraft | PC12/L-SDFGRY/H |
Departure
| Time | 2026-05-07 15:03 |
|---|---|
| Airport | Tampere-Pirkkala Airport (EFTP) |
Arrival
| Time | 2026-05-07 16:04 |
|---|---|
| Airport | Tampere-Pirkkala Airport (EFTP) |
| Time | Latitude | Longitude | Altitude | Speed | Heading |
|---|---|---|---|---|---|
| 2026-05-07 14:55 | 61.40874 | 23.61781 | 377 ft | 0 kts | 339° |
| 2026-05-07 15:00 | 61.40906 | 23.61833 | 378 ft | 14 kts | 68° |
| 2026-05-07 15:00 | 61.40981 | 23.62095 | 386 ft | 27 kts | 39° |
| 2026-05-07 15:00 | 61.41106 | 23.62232 | 393 ft | 13 kts | 22° |
| 2026-05-07 15:00 | 61.41240 | 23.62350 | 384 ft | 25 kts | 24° |
| 2026-05-07 15:01 | 61.41389 | 23.62480 | 383 ft | 20 kts | 25° |
| 2026-05-07 15:01 | 61.41522 | 23.62591 | 383 ft | 21 kts | 25° |
| 2026-05-07 15:01 | 61.41666 | 23.62718 | 375 ft | 24 kts | 23° |
| 2026-05-07 15:01 | 61.41780 | 23.62821 | 372 ft | 12 kts | 26° |
| 2026-05-07 15:02 | 61.41874 | 23.62802 | 368 ft | 18 kts | 316° |
| 2026-05-07 15:02 | 61.41902 | 23.62577 | 368 ft | 25 kts | 244° |
| 2026-05-07 15:02 | 61.41732 | 23.61813 | 383 ft | 87 kts | 248° |
| 2026-05-07 15:02 | 61.41433 | 23.60581 | 805 ft | 102 kts | 245° |
| 2026-05-07 15:03 | 61.41052 | 23.59178 | 1303 ft | 123 kts | 241° |
| 2026-05-07 15:03 | 61.40513 | 23.57370 | 1505 ft | 173 kts | 237° |
| 2026-05-07 15:03 | 61.39371 | 23.55993 | 1501 ft | 204 kts | 192° |
| 2026-05-07 15:03 | 61.37996 | 23.56769 | 1494 ft | 216 kts | 146° |
| 2026-05-07 15:04 | 61.36856 | 23.58847 | 1512 ft | 221 kts | 139° |
| 2026-05-07 15:04 | 61.35721 | 23.61013 | 1507 ft | 225 kts | 139° |
| 2026-05-07 15:04 | 61.34574 | 23.63229 | 1504 ft | 224 kts | 139° |
| 2026-05-07 15:04 | 61.33432 | 23.65427 | 1507 ft | 224 kts | 138° |
| 2026-05-07 15:05 | 61.32289 | 23.67624 | 1506 ft | 224 kts | 139° |
| 2026-05-07 15:05 | 61.31145 | 23.69815 | 1505 ft | 222 kts | 139° |
| 2026-05-07 15:05 | 61.30027 | 23.72029 | 1515 ft | 222 kts | 133° |
| 2026-05-07 15:05 | 61.29058 | 23.74529 | 1646 ft | 223 kts | 129° |
| 2026-05-07 15:06 | 61.28092 | 23.77051 | 1780 ft | 223 kts | 129° |
| 2026-05-07 15:06 | 61.27114 | 23.79569 | 1906 ft | 225 kts | 129° |
| 2026-05-07 15:06 | 61.26133 | 23.82093 | 1994 ft | 225 kts | 129° |
| 2026-05-07 15:06 | 61.25158 | 23.84646 | 1989 ft | 226 kts | 129° |
| 2026-05-07 15:07 | 61.24168 | 23.87195 | 1992 ft | 227 kts | 130° |
| 2026-05-07 15:07 | 61.23167 | 23.89714 | 1994 ft | 226 kts | 130° |
| 2026-05-07 15:07 | 61.22153 | 23.92228 | 1991 ft | 225 kts | 130° |
| 2026-05-07 15:07 | 61.21156 | 23.94719 | 1993 ft | 229 kts | 130° |
| 2026-05-07 15:08 | 61.20159 | 23.97244 | 1987 ft | 226 kts | 129° |
| 2026-05-07 15:08 | 61.19154 | 23.99746 | 1988 ft | 224 kts | 130° |
| 2026-05-07 15:08 | 61.18160 | 24.02202 | 1988 ft | 223 kts | 130° |
| 2026-05-07 15:08 | 61.17145 | 24.04725 | 1992 ft | 229 kts | 130° |
| 2026-05-07 15:09 | 61.16152 | 24.07231 | 1991 ft | 224 kts | 130° |
| 2026-05-07 15:09 | 61.15154 | 24.09755 | 1985 ft | 228 kts | 130° |
| 2026-05-07 15:09 | 61.14153 | 24.12281 | 1981 ft | 223 kts | 130° |
| 2026-05-07 15:09 | 61.13168 | 24.14748 | 1978 ft | 226 kts | 130° |
| 2026-05-07 15:10 | 61.12155 | 24.17254 | 1984 ft | 226 kts | 130° |
| 2026-05-07 15:10 | 61.11128 | 24.19655 | 1980 ft | 224 kts | 136° |
| 2026-05-07 15:10 | 61.09964 | 24.21803 | 1982 ft | 226 kts | 141° |
| 2026-05-07 15:10 | 61.08770 | 24.23876 | 1987 ft | 222 kts | 140° |
| 2026-05-07 15:11 | 61.07589 | 24.25965 | 1982 ft | 225 kts | 139° |
| 2026-05-07 15:11 | 61.06395 | 24.28085 | 1979 ft | 226 kts | 140° |
| 2026-05-07 15:11 | 61.05206 | 24.30201 | 1976 ft | 225 kts | 139° |
| 2026-05-07 15:11 | 61.04032 | 24.32300 | 1974 ft | 226 kts | 139° |
| 2026-05-07 15:12 | 61.02820 | 24.34479 | 1976 ft | 233 kts | 139° |
| 2026-05-07 15:12 | 61.01615 | 24.36652 | 1974 ft | 230 kts | 139° |
| 2026-05-07 15:12 | 61.00352 | 24.38709 | 1968 ft | 234 kts | 153° |
| 2026-05-07 15:12 | 60.98791 | 24.39109 | 1955 ft | 226 kts | 196° |
| 2026-05-07 15:13 | 60.97474 | 24.37421 | 1916 ft | 226 kts | 225° |
| 2026-05-07 15:13 | 60.96399 | 24.35084 | 1770 ft | 224 kts | 230° |
| 2026-05-07 15:13 | 60.95369 | 24.32674 | 1611 ft | 221 kts | 237° |
| 2026-05-07 15:13 | 60.94969 | 24.29730 | 1461 ft | 216 kts | 277° |
| 2026-05-07 15:14 | 60.95337 | 24.26757 | 1475 ft | 218 kts | 289° |
| 2026-05-07 15:14 | 60.95820 | 24.23776 | 1485 ft | 220 kts | 290° |
| 2026-05-07 15:14 | 60.96313 | 24.20789 | 1480 ft | 219 kts | 290° |
| 2026-05-07 15:14 | 60.96799 | 24.17812 | 1479 ft | 219 kts | 290° |
| 2026-05-07 15:15 | 60.97288 | 24.14850 | 1479 ft | 218 kts | 290° |
| 2026-05-07 15:15 | 60.97764 | 24.11898 | 1483 ft | 217 kts | 289° |
| 2026-05-07 15:15 | 60.98248 | 24.08974 | 1482 ft | 215 kts | 290° |
| 2026-05-07 15:15 | 60.98966 | 24.06326 | 1472 ft | 215 kts | 316° |
| 2026-05-07 15:16 | 61.00336 | 24.05250 | 1471 ft | 222 kts | 358° |
| 2026-05-07 15:16 | 61.01871 | 24.05679 | 1483 ft | 222 kts | 8° |
| 2026-05-07 15:16 | 61.03396 | 24.06328 | 1484 ft | 223 kts | 9° |
| 2026-05-07 15:16 | 61.04909 | 24.06957 | 1489 ft | 221 kts | 9° |
| 2026-05-07 15:17 | 61.06416 | 24.07616 | 1490 ft | 221 kts | 9° |
| 2026-05-07 15:17 | 61.07920 | 24.08282 | 1490 ft | 221 kts | 10° |
| 2026-05-07 15:17 | 61.09285 | 24.09774 | 1477 ft | 227 kts | 37° |
| 2026-05-07 15:17 | 61.10470 | 24.11956 | 1485 ft | 228 kts | 39° |
| 2026-05-07 15:18 | 61.11607 | 24.14181 | 1478 ft | 230 kts | 46° |
| 2026-05-07 15:18 | 61.12161 | 24.17307 | 1466 ft | 237 kts | 89° |
| 2026-05-07 15:18 | 61.11629 | 24.20428 | 1475 ft | 237 kts | 126° |
| 2026-05-07 15:18 | 61.10497 | 24.22922 | 1482 ft | 238 kts | 138° |
| 2026-05-07 15:19 | 61.09253 | 24.25165 | 1486 ft | 238 kts | 140° |
| 2026-05-07 15:19 | 61.07989 | 24.27374 | 1485 ft | 237 kts | 140° |
| 2026-05-07 15:19 | 61.06721 | 24.29577 | 1480 ft | 239 kts | 140° |
| 2026-05-07 15:19 | 61.05436 | 24.31788 | 1477 ft | 241 kts | 140° |
| 2026-05-07 15:20 | 61.04142 | 24.33997 | 1476 ft | 240 kts | 140° |
| 2026-05-07 15:20 | 61.02858 | 24.36188 | 1478 ft | 239 kts | 140° |
| 2026-05-07 15:20 | 61.01405 | 24.37760 | 1460 ft | 238 kts | 172° |
| 2026-05-07 15:20 | 60.99826 | 24.37127 | 1464 ft | 232 kts | 213° |
| 2026-05-07 15:21 | 60.98744 | 24.34763 | 1468 ft | 226 kts | 238° |
| 2026-05-07 15:21 | 60.97882 | 24.32041 | 1479 ft | 227 kts | 240° |
| 2026-05-07 15:21 | 60.97175 | 24.29175 | 1468 ft | 222 kts | 261° |
| 2026-05-07 15:21 | 60.97324 | 24.26095 | 1452 ft | 221 kts | 287° |
| 2026-05-07 15:22 | 60.97791 | 24.23065 | 1405 ft | 221 kts | 290° |
| 2026-05-07 15:22 | 60.98272 | 24.20079 | 1360 ft | 220 kts | 289° |
| 2026-05-07 15:22 | 60.98764 | 24.17068 | 1303 ft | 222 kts | 290° |
| 2026-05-07 15:22 | 60.99256 | 24.14071 | 1254 ft | 220 kts | 290° |
| 2026-05-07 15:23 | 60.99753 | 24.11083 | 1192 ft | 218 kts | 290° |
| 2026-05-07 15:23 | 61.00238 | 24.08161 | 1192 ft | 214 kts | 289° |
| 2026-05-07 15:23 | 61.00731 | 24.05295 | 1185 ft | 213 kts | 293° |
| 2026-05-07 15:23 | 61.01710 | 24.03059 | 1173 ft | 218 kts | 331° |
| 2026-05-07 15:24 | 61.03211 | 24.02710 | 1182 ft | 220 kts | 4° |
| 2026-05-07 15:24 | 61.04721 | 24.03329 | 1184 ft | 221 kts | 9° |
| 2026-05-07 15:24 | 61.06207 | 24.04064 | 1190 ft | 220 kts | 16° |
| 2026-05-07 15:24 | 61.07501 | 24.05797 | 1182 ft | 225 kts | 38° |
| 2026-05-07 15:25 | 61.08665 | 24.07971 | 1193 ft | 226 kts | 40° |
| 2026-05-07 15:25 | 61.09822 | 24.10185 | 1189 ft | 227 kts | 40° |
| 2026-05-07 15:25 | 61.10816 | 24.12706 | 1171 ft | 231 kts | 66° |
| 2026-05-07 15:25 | 61.10866 | 24.15985 | 1176 ft | 233 kts | 108° |
| 2026-05-07 15:26 | 61.10001 | 24.18847 | 1174 ft | 237 kts | 128° |
| 2026-05-07 15:26 | 61.08969 | 24.21429 | 1182 ft | 236 kts | 130° |
| 2026-05-07 15:26 | 61.07903 | 24.24056 | 1185 ft | 239 kts | 129° |
| 2026-05-07 15:26 | 61.06829 | 24.26667 | 1188 ft | 237 kts | 130° |
| 2026-05-07 15:27 | 61.05758 | 24.29263 | 1180 ft | 238 kts | 130° |
| 2026-05-07 15:27 | 61.04686 | 24.31861 | 1176 ft | 237 kts | 130° |
| 2026-05-07 15:27 | 61.03609 | 24.34442 | 1180 ft | 237 kts | 130° |
| 2026-05-07 15:27 | 61.02383 | 24.36662 | 1161 ft | 236 kts | 155° |
| 2026-05-07 15:28 | 61.00791 | 24.36908 | 1166 ft | 232 kts | 198° |
| 2026-05-07 15:28 | 60.99514 | 24.35034 | 1169 ft | 225 kts | 233° |
| 2026-05-07 15:28 | 60.98716 | 24.32272 | 1176 ft | 224 kts | 248° |
| 2026-05-07 15:28 | 60.98106 | 24.29306 | 1180 ft | 226 kts | 250° |
| 2026-05-07 15:29 | 60.97561 | 24.26332 | 1172 ft | 224 kts | 260° |
| 2026-05-07 15:29 | 60.97684 | 24.23212 | 1171 ft | 219 kts | 288° |
| 2026-05-07 15:29 | 60.98132 | 24.20241 | 1174 ft | 217 kts | 288° |
| 2026-05-07 15:29 | 60.98615 | 24.17265 | 1172 ft | 218 kts | 291° |
| 2026-05-07 15:30 | 60.99098 | 24.14299 | 1167 ft | 218 kts | 289° |
| 2026-05-07 15:30 | 60.99592 | 24.11340 | 1179 ft | 216 kts | 291° |
| 2026-05-07 15:30 | 61.00157 | 24.08518 | 1170 ft | 212 kts | 306° |
| 2026-05-07 15:30 | 61.01396 | 24.06938 | 1176 ft | 218 kts | 348° |
| 2026-05-07 15:31 | 61.02908 | 24.07151 | 1188 ft | 219 kts | 8° |
| 2026-05-07 15:31 | 61.04406 | 24.07769 | 1186 ft | 220 kts | 10° |
| 2026-05-07 15:31 | 61.05904 | 24.08447 | 1194 ft | 220 kts | 10° |
| 2026-05-07 15:31 | 61.07306 | 24.09579 | 1177 ft | 225 kts | 32° |
| 2026-05-07 15:32 | 61.08497 | 24.11698 | 1182 ft | 226 kts | 40° |
| 2026-05-07 15:32 | 61.09654 | 24.13900 | 1185 ft | 227 kts | 39° |
| 2026-05-07 15:32 | 61.10729 | 24.16272 | 1176 ft | 228 kts | 58° |
| 2026-05-07 15:32 | 61.10960 | 24.19525 | 1172 ft | 236 kts | 101° |
| 2026-05-07 15:33 | 61.10159 | 24.22448 | 1171 ft | 235 kts | 131° |
| 2026-05-07 15:33 | 61.09067 | 24.24828 | 1166 ft | 227 kts | 135° |
| 2026-05-07 15:33 | 61.07867 | 24.27032 | 1122 ft | 234 kts | 140° |
| 2026-05-07 15:33 | 61.06607 | 24.29217 | 1025 ft | 240 kts | 140° |
| 2026-05-07 15:34 | 61.05318 | 24.31435 | 919 ft | 241 kts | 140° |
| 2026-05-07 15:34 | 61.04469 | 24.32893 | 872 ft | 237 kts | 140° |
| 2026-05-07 15:34 | 61.03206 | 24.34993 | 987 ft | 231 kts | 146° |
| 2026-05-07 15:34 | 61.01676 | 24.35769 | 1129 ft | 230 kts | 189° |
| 2026-05-07 15:35 | 61.00312 | 24.34302 | 1298 ft | 221 kts | 230° |
| 2026-05-07 15:35 | 60.99415 | 24.31755 | 1471 ft | 220 kts | 239° |
| 2026-05-07 15:35 | 60.98578 | 24.29064 | 1476 ft | 224 kts | 240° |
| 2026-05-07 15:35 | 60.97941 | 24.26189 | 1470 ft | 222 kts | 264° |
| 2026-05-07 15:36 | 60.98317 | 24.22133 | 1475 ft | 219 kts | 289° |
| 2026-05-07 15:36 | 60.98646 | 24.20118 | 1482 ft | 220 kts | 290° |
| 2026-05-07 15:36 | 60.99148 | 24.17150 | 1483 ft | 220 kts | 290° |
| 2026-05-07 15:36 | 60.99639 | 24.14203 | 1481 ft | 219 kts | 290° |
| 2026-05-07 15:37 | 61.00138 | 24.11253 | 1482 ft | 218 kts | 291° |
| 2026-05-07 15:37 | 61.00636 | 24.08302 | 1483 ft | 216 kts | 290° |
| 2026-05-07 15:37 | 61.01255 | 24.05499 | 1473 ft | 216 kts | 309° |
| 2026-05-07 15:37 | 61.02553 | 24.04065 | 1471 ft | 219 kts | 351° |
| 2026-05-07 15:38 | 61.04087 | 24.04377 | 1483 ft | 222 kts | 9° |
| 2026-05-07 15:38 | 61.05596 | 24.05038 | 1492 ft | 221 kts | 10° |
| 2026-05-07 15:38 | 61.07096 | 24.05732 | 1498 ft | 220 kts | 11° |
| 2026-05-07 15:38 | 61.08436 | 24.07222 | 1487 ft | 226 kts | 35° |
| 2026-05-07 15:39 | 61.09620 | 24.09412 | 1488 ft | 228 kts | 40° |
| 2026-05-07 15:39 | 61.10743 | 24.11726 | 1476 ft | 229 kts | 52° |
| 2026-05-07 15:39 | 61.11143 | 24.14907 | 1471 ft | 237 kts | 94° |
| 2026-05-07 15:39 | 61.10486 | 24.17991 | 1478 ft | 238 kts | 126° |
| 2026-05-07 15:40 | 61.09437 | 24.20629 | 1485 ft | 235 kts | 131° |
| 2026-05-07 15:40 | 61.08354 | 24.23129 | 1489 ft | 237 kts | 131° |
| 2026-05-07 15:40 | 61.07237 | 24.25665 | 1486 ft | 240 kts | 132° |
| 2026-05-07 15:40 | 61.06112 | 24.28191 | 1482 ft | 239 kts | 131° |
| 2026-05-07 15:41 | 61.04978 | 24.30709 | 1482 ft | 239 kts | 132° |
| 2026-05-07 15:41 | 61.03836 | 24.33226 | 1482 ft | 240 kts | 133° |
| 2026-05-07 15:41 | 61.02614 | 24.35518 | 1463 ft | 238 kts | 152° |
| 2026-05-07 15:41 | 61.01034 | 24.36008 | 1463 ft | 235 kts | 193° |
| 2026-05-07 15:42 | 60.99681 | 24.34310 | 1470 ft | 228 kts | 232° |
| 2026-05-07 15:42 | 60.98777 | 24.31666 | 1484 ft | 225 kts | 240° |
| 2026-05-07 15:42 | 60.97920 | 24.28950 | 1488 ft | 226 kts | 240° |
| 2026-05-07 15:42 | 60.97484 | 24.25942 | 1458 ft | 220 kts | 276° |
| 2026-05-07 15:43 | 60.97822 | 24.22917 | 1472 ft | 218 kts | 288° |
| 2026-05-07 15:43 | 60.98302 | 24.19942 | 1474 ft | 219 kts | 290° |
| 2026-05-07 15:43 | 60.98797 | 24.16989 | 1476 ft | 218 kts | 290° |
| 2026-05-07 15:43 | 60.99282 | 24.14058 | 1479 ft | 218 kts | 290° |
| 2026-05-07 15:44 | 60.99773 | 24.11131 | 1475 ft | 215 kts | 290° |
| 2026-05-07 15:44 | 61.00257 | 24.08207 | 1477 ft | 215 kts | 290° |
| 2026-05-07 15:44 | 61.01030 | 24.05655 | 1476 ft | 213 kts | 321° |
| 2026-05-07 15:44 | 61.02450 | 24.04844 | 1475 ft | 220 kts | 1° |
| 2026-05-07 15:45 | 61.03967 | 24.05369 | 1486 ft | 221 kts | 9° |
| 2026-05-07 15:45 | 61.05468 | 24.06039 | 1494 ft | 221 kts | 9° |
| 2026-05-07 15:45 | 61.06970 | 24.06729 | 1497 ft | 221 kts | 10° |
| 2026-05-07 15:45 | 61.08452 | 24.07458 | 1487 ft | 223 kts | 17° |
| 2026-05-07 15:46 | 61.10921 | 24.11470 | 1484 ft | 227 kts | 41° |
| 2026-05-07 15:46 | 61.12086 | 24.13694 | 1483 ft | 227 kts | 40° |
| 2026-05-07 15:46 | 61.13158 | 24.16094 | 1475 ft | 231 kts | 58° |
| 2026-05-07 15:47 | 61.13391 | 24.19355 | 1471 ft | 238 kts | 100° |
| 2026-05-07 15:47 | 61.12549 | 24.22248 | 1473 ft | 237 kts | 137° |
| 2026-05-07 15:47 | 61.11274 | 24.24335 | 1482 ft | 237 kts | 144° |
| 2026-05-07 15:47 | 61.09914 | 24.26292 | 1486 ft | 239 kts | 148° |
| 2026-05-07 15:48 | 61.08494 | 24.28037 | 1477 ft | 236 kts | 150° |
| 2026-05-07 15:48 | 61.07070 | 24.29729 | 1483 ft | 236 kts | 150° |
| 2026-05-07 15:48 | 61.05645 | 24.31432 | 1486 ft | 238 kts | 150° |
| 2026-05-07 15:48 | 61.04216 | 24.33138 | 1483 ft | 237 kts | 150° |
| 2026-05-07 15:49 | 61.02791 | 24.34830 | 1739 ft | 229 kts | 151° |
| 2026-05-07 15:49 | 61.01355 | 24.35561 | 2580 ft | 204 kts | 191° |
| 2026-05-07 15:49 | 61.00208 | 24.34138 | 3406 ft | 193 kts | 233° |
| 2026-05-07 15:49 | 60.99442 | 24.31877 | 4144 ft | 193 kts | 238° |
| 2026-05-07 15:50 | 60.98714 | 24.29537 | 4885 ft | 193 kts | 239° |
| 2026-05-07 15:50 | 60.98249 | 24.26983 | 5557 ft | 194 kts | 272° |
| 2026-05-07 15:50 | 60.98586 | 24.24300 | 6301 ft | 195 kts | 289° |
| 2026-05-07 15:50 | 60.99063 | 24.21644 | 6919 ft | 203 kts | 290° |
| 2026-05-07 15:51 | 60.99582 | 24.18810 | 7060 ft | 218 kts | 290° |
| 2026-05-07 15:51 | 61.00123 | 24.15873 | 7062 ft | 224 kts | 290° |
| 2026-05-07 15:51 | 61.00685 | 24.12819 | 7071 ft | 229 kts | 290° |
| 2026-05-07 15:51 | 61.01244 | 24.09862 | 7070 ft | 223 kts | 291° |
| 2026-05-07 15:52 | 61.02277 | 24.07458 | 7047 ft | 233 kts | 329° |
| 2026-05-07 15:52 | 61.03870 | 24.06680 | 7059 ft | 239 kts | 352° |
| 2026-05-07 15:52 | 61.05538 | 24.06488 | 7068 ft | 240 kts | 354° |
| 2026-05-07 15:52 | 61.07205 | 24.06219 | 7070 ft | 241 kts | 351° |
| 2026-05-07 15:53 | 61.08875 | 24.05791 | 7068 ft | 243 kts | 349° |
| 2026-05-07 15:53 | 61.10554 | 24.05354 | 7069 ft | 243 kts | 351° |
| 2026-05-07 15:53 | 61.12238 | 24.04947 | 7068 ft | 244 kts | 351° |
| 2026-05-07 15:53 | 61.13936 | 24.04699 | 7069 ft | 244 kts | 355° |
| 2026-05-07 15:54 | 61.15613 | 24.04520 | 7069 ft | 244 kts | 354° |
| 2026-05-07 15:54 | 61.17322 | 24.04320 | 6941 ft | 248 kts | 354° |
| 2026-05-07 15:54 | 61.19026 | 24.04121 | 6754 ft | 241 kts | 354° |
| 2026-05-07 15:54 | 61.20683 | 24.03930 | 6577 ft | 237 kts | 354° |
| 2026-05-07 15:55 | 61.22323 | 24.03738 | 6393 ft | 235 kts | 354° |
| 2026-05-07 15:55 | 61.23951 | 24.03548 | 6207 ft | 234 kts | 354° |
| 2026-05-07 15:55 | 61.25576 | 24.03358 | 6020 ft | 234 kts | 354° |
| 2026-05-07 15:55 | 61.27199 | 24.03171 | 5836 ft | 232 kts | 354° |
| 2026-05-07 15:56 | 61.28804 | 24.02985 | 5633 ft | 229 kts | 354° |
| 2026-05-07 15:56 | 61.30396 | 24.02798 | 5440 ft | 229 kts | 354° |
| 2026-05-07 15:56 | 61.31986 | 24.02611 | 5209 ft | 229 kts | 354° |
| 2026-05-07 15:56 | 61.33575 | 24.02425 | 4973 ft | 229 kts | 354° |
| 2026-05-07 15:57 | 61.35162 | 24.02241 | 4741 ft | 227 kts | 354° |
| 2026-05-07 15:57 | 61.36738 | 24.02058 | 4503 ft | 226 kts | 354° |
| 2026-05-07 15:57 | 61.38278 | 24.01874 | 4303 ft | 226 kts | 354° |
| 2026-05-07 15:57 | 61.39841 | 24.01690 | 4144 ft | 225 kts | 354° |
| 2026-05-07 15:58 | 61.41393 | 24.01388 | 3982 ft | 223 kts | 345° |
| 2026-05-07 15:58 | 61.42829 | 24.00246 | 3836 ft | 220 kts | 332° |
| 2026-05-07 15:58 | 61.44212 | 23.98860 | 3732 ft | 220 kts | 333° |
| 2026-05-07 15:58 | 61.45594 | 23.97513 | 3654 ft | 219 kts | 333° |
| 2026-05-07 15:59 | 61.46865 | 23.95842 | 3569 ft | 216 kts | 313° |
| 2026-05-07 15:59 | 61.47656 | 23.93254 | 3501 ft | 206 kts | 291° |
| 2026-05-07 15:59 | 61.47889 | 23.90356 | 3250 ft | 197 kts | 268° |
| 2026-05-07 15:59 | 61.47598 | 23.87645 | 3041 ft | 184 kts | 252° |
| 2026-05-07 16:00 | 61.47101 | 23.85281 | 2799 ft | 177 kts | 248° |
| 2026-05-07 16:00 | 61.46582 | 23.82979 | 2560 ft | 173 kts | 248° |
| 2026-05-07 16:00 | 61.46093 | 23.80858 | 2328 ft | 155 kts | 248° |
| 2026-05-07 16:00 | 61.45647 | 23.78918 | 2127 ft | 144 kts | 249° |
| 2026-05-07 16:01 | 61.45221 | 23.77057 | 1934 ft | 143 kts | 248° |
| 2026-05-07 16:01 | 61.44806 | 23.75249 | 1744 ft | 136 kts | 249° |
| 2026-05-07 16:01 | 61.44392 | 23.73412 | 1556 ft | 143 kts | 249° |
| 2026-05-07 16:01 | 61.43976 | 23.71597 | 1357 ft | 129 kts | 246° |
| 2026-05-07 16:02 | 61.43620 | 23.70041 | 1175 ft | 111 kts | 246° |
| 2026-05-07 16:02 | 61.43309 | 23.68711 | 1030 ft | 96 kts | 249° |
| 2026-05-07 16:02 | 61.43018 | 23.67441 | 898 ft | 95 kts | 249° |
| 2026-05-07 16:02 | 61.42738 | 23.66260 | 764 ft | 89 kts | 248° |
| 2026-05-07 16:03 | 61.42485 | 23.65143 | 677 ft | 82 kts | 251° |
| 2026-05-07 16:03 | 61.42245 | 23.64059 | 554 ft | 83 kts | 250° |
| 2026-05-07 16:03 | 61.41997 | 23.62993 | 451 ft | 82 kts | 250° |
| 2026-05-07 16:03 | 61.41758 | 23.61943 | 375 ft | 75 kts | 250° |
| 2026-05-07 16:04 | 61.41569 | 23.61105 | 383 ft | 59 kts | 245° |
| 2026-05-07 16:04 | 61.41394 | 23.60347 | 392 ft | 58 kts | 245° |
| 2026-05-07 16:04 | 61.41228 | 23.59626 | 387 ft | 40 kts | 245° |
| 2026-05-07 16:04 | 61.41149 | 23.59280 | 391 ft | 30 kts | 243° |
| 2026-05-07 16:05 | 61.41040 | 23.59237 | 391 ft | 23 kts | 152° |
| 2026-05-07 16:05 | 61.40975 | 23.59462 | 389 ft | 22 kts | 82° |
| 2026-05-07 16:05 | 61.40946 | 23.59887 | 386 ft | 33 kts | 111° |
| 2026-05-07 16:05 | 61.40820 | 23.60256 | 374 ft | 33 kts | 138° |
| 2026-05-07 16:06 | 61.40704 | 23.60613 | 370 ft | 27 kts | 96° |
| 2026-05-07 16:06 | 61.40724 | 23.61022 | 373 ft | 26 kts | 97° |
| 2026-05-07 16:06 | 61.40722 | 23.61379 | 369 ft | 24 kts | 65° |
| 2026-05-07 16:06 | 61.40815 | 23.61591 | 374 ft | 16 kts | 52° |
| 2026-05-07 16:07 | 61.40859 | 23.61710 | 376 ft | 7 kts | 343° |
| 2026-05-07 16:07 | 61.40863 | 23.61707 | 376 ft | 0 kts | 333° |